Mount Stewart, Prince Edward Island

1:59 PM ADT on April 28, 2015 (GMT -0300)
Winter Bay Observatory | | Change Station
CLOSE
Current Station
Personal Weather Station
Location: Millcove, PRINCE EDWARD ISLAND
Elevation: 26 ft
Nearby Weather Stations

Elev 26 ft 46.37 °N, 63.03 °W | Updated 9 minutes ago

Light Snow
Light Snow Low Drifting Snow
33.9 °F
Feels Like 29 °F
N
6.0
Wind Variable Wind from North
Gusts 15.0 mph

Today
High -- | Low -- °F
--% Chance of Precip.
Yesterday
High -- | Low -- °F
Precip. -- in
6:03 AM 8:16 PM
Waxing Gibbous, 75% visible
Pressure 29.31 in
Visibility 0.8 miles
Clouds Overcast 400 ft
Windchill 29 °F
Dew Point 33 °F
Humidity 97%
Rainfall 0.21 in
Snow Depth Not available.
UV 3 out of 12
Pollen Not available.
Air Quality Not available.
Flu Activity Not available.
METAR CYYG 281600Z 36014G22KT 3/4SM R03/3500FT/N -SN DRSN OVC004 01/M00 A2930 RMK SN4SF4 VIS VRB 1/2-1 /S04/ SLP924

More Conditions Fewer Conditions

Pressure 29.31 in
Visibility 0.8 miles
Clouds Overcast 400 ft
Windchill 29 °F
Dew Point 33 °F
Humidity 97%
Rainfall 0.21 in
Snow Depth Not available.
UV 3 out of 12
Pollen Not available.
Air Quality Not available.
Flu Activity Not available.
METAR CYYG 281600Z 36014G22KT 3/4SM R03/3500FT/N -SN DRSN OVC004 01/M00 A2930 RMK SN4SF4 VIS VRB 1/2-1 /S04/ SLP924

More Conditions Fewer Conditions

10-Day Weather Forecast

Almanac

Astronomy

Apr. 28, 2015 Rise Set
Actual Time
Civil Twilight
Nautical Twilight
Astronomical Twilight
Moon
Length of Visible Light
Length of Day
Tomorrow will be .
, % of the Moon is Illuminated

Today's Extremes

Country Highs Country Lows

Community

WunderPhotos

Upload Photos

1,817,699 photos uploaded!

WunderBlogs® & News

Nearby

Air Quality

  Air Quality AQ Index Pollutant
Not available.

Snow Depth

Station Depth Elevation

Earthquake Activity

City Distance Mag. Time & Date
Minimum magnitude displayed is 2.5.

Coastal Water Temperatures

Place Temperature

Stations

Nearby Weather Stations

Station Location Temp. Windchill Dew Point Humidity Wind Precip. Elev Updated Type